createdAt,value
2022-07-27T00:00:24.709Z,86.60
2022-07-27T00:02:57.140Z,86.50
2022-07-27T00:05:29.041Z,86.70
2022-07-27T00:08:01.024Z,86.90
2022-07-27T00:10:34.426Z,86.80
2022-07-27T00:13:07.361Z,86.70
2022-07-27T00:15:39.331Z,87.10
2022-07-27T00:18:11.448Z,87.40
2022-07-27T00:20:43.586Z,87.00
2022-07-27T00:23:15.591Z,87.70
2022-07-27T00:25:47.600Z,87.50
2022-07-27T00:28:19.949Z,88.90
2022-07-27T00:30:51.947Z,87.30
2022-07-27T00:33:23.902Z,87.70
2022-07-27T00:35:56.075Z,88.70
2022-07-27T00:38:28.244Z,88.00
2022-07-27T00:41:00.346Z,88.90
2022-07-27T00:43:32.498Z,88.30
2022-07-27T00:46:24.803Z,88.30
2022-07-27T00:49:09.535Z,88.40
2022-07-27T00:51:41.914Z,88.60
2022-07-27T00:54:14.726Z,88.70
2022-07-27T00:56:47.606Z,88.60
2022-07-27T00:59:20.957Z,88.60
2022-07-27T01:01:53.466Z,89.00
2022-07-27T01:04:27.338Z,88.20
2022-07-27T01:07:00.220Z,88.10
2022-07-27T01:09:53.311Z,89.10
2022-07-27T01:12:47.659Z,89.70
2022-07-27T01:15:20.108Z,89.50
2022-07-27T01:17:52.125Z,88.70
2022-07-27T01:20:24.213Z,89.00
2022-07-27T01:22:56.322Z,90.40
2022-07-27T01:25:28.348Z,89.50
2022-07-27T01:28:00.417Z,90.20
2022-07-27T01:30:32.537Z,89.50
2022-07-27T01:33:08.457Z,89.80
2022-07-27T01:35:41.122Z,90.70
2022-07-27T01:38:13.315Z,90.20
2022-07-27T01:40:45.264Z,90.20
2022-07-27T01:43:17.223Z,90.30
2022-07-27T01:45:49.518Z,90.90
2022-07-27T01:48:22.079Z,91.50
2022-07-27T01:50:55.039Z,91.10
2022-07-27T01:53:27.029Z,90.70
2022-07-27T01:56:02.247Z,90.70
2022-07-27T01:58:34.367Z,90.90
2022-07-27T02:01:08.078Z,92.00
2022-07-27T02:03:40.925Z,91.40
2022-07-27T02:06:13.007Z,91.60
2022-07-27T02:08:44.996Z,91.70
2022-07-27T02:11:35.771Z,92.40
2022-07-27T02:14:27.488Z,92.30
2022-07-27T02:17:00.060Z,91.80
2022-07-27T02:19:32.304Z,92.90
2022-07-27T02:22:04.264Z,92.40
2022-07-27T02:24:37.849Z,92.70
2022-07-27T02:27:10.020Z,93.00
2022-07-27T02:29:41.993Z,93.10
2022-07-27T02:32:13.965Z,93.20
2022-07-27T02:34:46.302Z,93.60
2022-07-27T02:37:18.409Z,93.70
2022-07-27T02:39:50.413Z,93.80
2022-07-27T02:42:23.816Z,94.40
2022-07-27T02:44:55.734Z,94.10
2022-07-27T02:47:27.721Z,94.10
2022-07-27T02:50:00.821Z,94.90
2022-07-27T02:52:33.974Z,94.60
2022-07-27T02:55:07.549Z,94.80
2022-07-27T02:57:41.179Z,94.70
2022-07-27T03:00:15.820Z,95.10
2022-07-27T03:02:50.982Z,94.80
2022-07-27T03:05:23.043Z,95.30
2022-07-27T03:07:58.211Z,95.50
2022-07-27T03:10:30.198Z,95.90
2022-07-27T03:13:02.856Z,95.80
2022-07-27T03:15:35.162Z,96.20
2022-07-27T03:18:07.130Z,96.10
2022-07-27T03:20:39.072Z,96.50
2022-07-27T03:23:10.981Z,96.90
2022-07-27T03:25:43.110Z,97.40
2022-07-27T03:28:15.056Z,98.20
2022-07-27T03:30:48.103Z,98.70
2022-07-27T03:33:20.221Z,98.40
2022-07-27T03:35:52.155Z,99.10
2022-07-27T03:38:24.112Z,99.50
2022-07-27T03:40:56.048Z,99.90
2022-07-27T03:43:28.010Z,99.90
2022-07-27T03:45:59.965Z,99.90
2022-07-27T03:48:32.167Z,99.90
2022-07-27T03:51:04.140Z,99.90
2022-07-27T03:53:36.533Z,99.90
2022-07-27T03:56:08.494Z,99.90
2022-07-27T03:58:40.464Z,99.90
2022-07-27T04:01:12.610Z,99.90
2022-07-27T04:03:44.683Z,99.90
2022-07-27T04:06:16.730Z,99.90
2022-07-27T04:08:50.761Z,99.90
2022-07-27T04:11:25.979Z,99.90
2022-07-27T04:14:01.760Z,99.90
2022-07-27T04:16:36.170Z,99.90
2022-07-27T04:19:08.802Z,99.90
2022-07-27T04:21:41.041Z,99.90
2022-07-27T04:24:12.973Z,99.90
2022-07-27T04:26:45.078Z,99.90
2022-07-27T04:29:20.969Z,99.90
2022-07-27T04:31:53.732Z,99.90
2022-07-27T04:34:25.981Z,99.90
2022-07-27T04:36:58.033Z,99.90
2022-07-27T04:39:30.152Z,99.90
2022-07-27T04:42:02.391Z,99.90
2022-07-27T04:44:34.994Z,99.90
2022-07-27T04:47:07.441Z,99.90
2022-07-27T04:49:39.823Z,99.90
2022-07-27T04:52:15.256Z,99.90
2022-07-27T04:54:52.391Z,99.90
2022-07-27T04:57:25.195Z,99.90
2022-07-27T05:00:04.923Z,99.90
2022-07-27T05:02:41.518Z,99.90
2022-07-27T05:05:13.543Z,99.90
2022-07-27T05:07:45.818Z,99.90
2022-07-27T05:10:20.459Z,99.90
2022-07-27T05:12:53.121Z,99.90
2022-07-27T05:15:25.214Z,99.90
2022-07-27T05:17:57.280Z,99.90
2022-07-27T05:20:29.499Z,99.90
2022-07-27T05:23:02.934Z,99.90
2022-07-27T05:25:34.983Z,99.90
2022-07-27T05:28:07.099Z,99.90
2022-07-27T05:30:39.071Z,99.90
2022-07-27T05:33:11.839Z,99.90
2022-07-27T05:35:43.800Z,99.90
2022-07-27T05:38:15.813Z,99.90
2022-07-27T05:40:48.006Z,99.90
2022-07-27T05:43:20.124Z,99.90
2022-07-27T05:45:52.158Z,99.90
2022-07-27T05:48:25.027Z,99.90
2022-07-27T05:50:57.328Z,99.90
2022-07-27T05:53:29.493Z,99.90
2022-07-27T05:56:01.594Z,99.90
2022-07-27T05:58:33.857Z,99.90
2022-07-27T06:01:05.979Z,99.90
2022-07-27T06:03:38.490Z,99.90
2022-07-27T06:06:29.300Z,99.90
2022-07-27T06:09:21.778Z,99.90
2022-07-27T06:11:53.810Z,99.90
2022-07-27T06:14:25.750Z,99.90
2022-07-27T06:16:57.778Z,99.90
2022-07-27T06:19:36.465Z,99.90
2022-07-27T06:22:10.374Z,99.90
2022-07-27T06:24:42.910Z,99.90
2022-07-27T06:27:14.857Z,99.90
2022-07-27T06:29:46.826Z,99.90
2022-07-27T06:32:18.874Z,99.90
2022-07-27T06:34:51.188Z,99.90
2022-07-27T06:37:23.712Z,99.90
2022-07-27T06:39:56.826Z,99.90
2022-07-27T06:42:29.878Z,99.90
2022-07-27T06:45:02.057Z,99.90
2022-07-27T06:47:34.717Z,99.90
2022-07-27T06:50:08.252Z,99.90
2022-07-27T06:52:41.205Z,99.90
2022-07-27T06:55:13.996Z,99.90
2022-07-27T06:57:46.569Z,99.90
2022-07-27T07:00:19.101Z,99.90
2022-07-27T07:02:57.264Z,99.90
2022-07-27T07:05:45.218Z,99.90
2022-07-27T07:08:17.726Z,99.90
2022-07-27T07:10:50.733Z,99.90
2022-07-27T07:13:23.743Z,99.90
2022-07-27T07:15:56.629Z,99.90
2022-07-27T07:18:28.790Z,99.90
2022-07-27T07:21:02.477Z,99.90
2022-07-27T07:23:34.722Z,99.90
2022-07-27T07:26:06.976Z,99.90
2022-07-27T07:28:39.474Z,99.90
2022-07-27T07:31:13.047Z,99.90
2022-07-27T07:33:45.472Z,99.90
2022-07-27T07:36:17.650Z,99.90
2022-07-27T07:38:49.886Z,99.90
2022-07-27T07:41:25.162Z,99.90
2022-07-27T07:43:57.346Z,99.90
2022-07-27T07:46:29.574Z,99.90
2022-07-27T07:49:04.187Z,99.90
2022-07-27T07:51:36.832Z,99.90
2022-07-27T07:54:08.995Z,99.90
2022-07-27T07:56:41.450Z,99.90
2022-07-27T07:59:14.952Z,99.90
2022-07-27T08:01:47.444Z,99.90
2022-07-27T08:04:19.527Z,99.90
2022-07-27T08:06:52.345Z,99.90
2022-07-27T08:09:26.893Z,99.90
2022-07-27T08:11:59.420Z,99.90
2022-07-27T08:14:31.699Z,99.90
2022-07-27T08:17:04.292Z,99.90
2022-07-27T08:19:40.062Z,99.90
2022-07-27T08:22:13.235Z,99.90
2022-07-27T08:24:45.295Z,99.90
2022-07-27T08:27:17.646Z,99.90
2022-07-27T08:29:51.907Z,99.90
2022-07-27T08:32:25.221Z,99.90
2022-07-27T08:35:00.929Z,99.90
2022-07-27T08:37:33.079Z,99.90
2022-07-27T08:40:38.847Z,99.90
2022-07-27T08:43:00.474Z,99.80
2022-07-27T08:45:34.424Z,99.50
2022-07-27T08:48:07.604Z,99.80
2022-07-27T08:50:43.541Z,98.80
2022-07-27T08:53:19.955Z,99.20
2022-07-27T08:55:56.789Z,99.90
2022-07-27T08:58:29.774Z,98.30
2022-07-27T09:01:02.041Z,98.10
2022-07-27T09:03:34.205Z,97.90
2022-07-27T09:06:06.437Z,97.10
2022-07-27T09:08:41.853Z,97.10
2022-07-27T09:11:29.781Z,97.90
2022-07-27T09:14:05.118Z,96.70
2022-07-27T09:17:28.375Z,96.50
2022-07-27T09:20:01.782Z,96.30
2022-07-27T09:23:03.129Z,95.20
2022-07-27T09:26:02.221Z,95.60
2022-07-27T09:29:02.037Z,95.90
2022-07-27T09:31:51.610Z,95.30
2022-07-27T09:34:34.187Z,95.80
2022-07-27T09:37:08.757Z,95.90
2022-07-27T09:39:41.004Z,95.60
2022-07-27T09:42:52.472Z,95.50
2022-07-27T09:45:34.513Z,94.70
2022-07-27T09:48:09.318Z,94.30
2022-07-27T09:51:02.798Z,93.80
2022-07-27T09:53:43.343Z,93.10
2022-07-27T09:56:17.643Z,93.00
2022-07-27T09:59:04.103Z,93.10
2022-07-27T10:01:46.708Z,93.10
2022-07-27T10:04:21.486Z,92.60
2022-07-27T10:07:02.724Z,91.00
2022-07-27T10:09:37.443Z,92.30
2022-07-27T10:12:09.888Z,91.40
2022-07-27T10:14:42.084Z,90.90
2022-07-27T10:17:14.420Z,91.60
2022-07-27T10:19:50.695Z,90.60
2022-07-27T10:22:49.196Z,90.70
2022-07-27T10:25:26.900Z,90.10
2022-07-27T10:28:16.565Z,90.00
2022-07-27T10:30:54.267Z,90.60
2022-07-27T10:33:49.322Z,90.10
2022-07-27T10:36:24.066Z,90.10
2022-07-27T10:39:37.770Z,90.20
2022-07-27T10:42:30.943Z,90.80
2022-07-27T10:45:07.834Z,86.00
2022-07-27T10:47:52.813Z,84.40
2022-07-27T10:50:29.990Z,85.10
2022-07-27T10:53:06.556Z,86.20
2022-07-27T10:55:39.027Z,85.10
2022-07-27T10:58:15.478Z,85.60
2022-07-27T11:01:07.561Z,84.30
2022-07-27T11:03:42.716Z,83.50
2022-07-27T11:06:32.939Z,83.70
2022-07-27T11:12:16.545Z,84.50
2022-07-27T11:14:56.770Z,83.90
2022-07-27T11:20:31.311Z,82.60
2022-07-27T11:23:50.395Z,81.00
2022-07-27T11:26:12.524Z,80.20
2022-07-27T11:28:45.035Z,79.50
2022-07-27T11:31:38.323Z,79.00
2022-07-27T11:34:14.399Z,79.40
2022-07-27T11:36:50.587Z,76.60
2022-07-27T11:39:59.164Z,78.30
2022-07-27T11:42:21.680Z,79.10
2022-07-27T11:45:31.623Z,81.40
2022-07-27T11:48:10.033Z,79.50
2022-07-27T11:50:58.125Z,79.10
2022-07-27T11:53:30.566Z,79.30
2022-07-27T11:56:03.863Z,79.50
2022-07-27T11:59:01.520Z,78.70
2022-07-27T12:01:48.479Z,77.30
2022-07-27T12:04:32.481Z,77.80
2022-07-27T12:07:10.651Z,76.50
2022-07-27T12:09:51.899Z,77.30
2022-07-27T12:12:31.609Z,77.00
2022-07-27T12:15:44.214Z,76.20
2022-07-27T12:18:07.156Z,75.30
2022-07-27T12:20:48.616Z,72.50
2022-07-27T12:23:29.865Z,74.10
2022-07-27T12:26:25.325Z,74.40
2022-07-27T12:29:10.313Z,73.20
2022-07-27T12:31:49.948Z,74.10
2022-07-27T12:34:52.132Z,75.90
2022-07-27T12:37:30.701Z,77.60
2022-07-27T12:40:15.087Z,76.20
2022-07-27T12:43:01.276Z,77.20
2022-07-27T12:45:37.778Z,76.60
2022-07-27T12:48:17.752Z,75.70
2022-07-27T12:51:06.999Z,75.80
2022-07-27T12:53:40.418Z,75.40
2022-07-27T12:56:14.300Z,76.20
2022-07-27T12:59:04.517Z,73.50
2022-07-27T13:01:36.774Z,72.40
2022-07-27T13:04:09.072Z,73.90
2022-07-27T13:06:41.297Z,71.60
2022-07-27T13:09:13.775Z,69.60
2022-07-27T13:11:48.088Z,70.60
2022-07-27T13:14:20.773Z,70.90
2022-07-27T13:16:53.036Z,69.90
2022-07-27T13:19:25.296Z,66.30
2022-07-27T13:21:57.545Z,66.30
2022-07-27T13:24:29.902Z,67.20
2022-07-27T13:27:02.441Z,68.50
2022-07-27T13:29:34.685Z,67.50
2022-07-27T13:32:08.277Z,67.20
2022-07-27T13:34:40.549Z,68.80
2022-07-27T13:37:13.236Z,69.60
2022-07-27T13:39:47.458Z,69.10
2022-07-27T13:42:21.139Z,70.70
2022-07-27T13:45:11.024Z,70.30
2022-07-27T13:47:44.115Z,70.80
2022-07-27T13:50:19.693Z,70.90
2022-07-27T13:52:53.102Z,71.70
2022-07-27T13:55:28.271Z,69.50
2022-07-27T13:58:00.600Z,70.80
2022-07-27T14:00:33.007Z,69.70
2022-07-27T14:03:07.497Z,68.60
2022-07-27T14:05:49.646Z,68.90
2022-07-27T14:08:22.159Z,70.30
2022-07-27T14:10:54.737Z,68.70
2022-07-27T14:13:27.098Z,70.30
2022-07-27T14:16:04.219Z,66.40
2022-07-27T14:18:39.136Z,67.90
2022-07-27T14:21:11.857Z,65.70
2022-07-27T14:23:46.337Z,64.80
2022-07-27T14:26:19.128Z,65.40
2022-07-27T14:28:55.167Z,66.60
2022-07-27T14:31:30.768Z,65.50
2022-07-27T14:34:05.969Z,66.70
2022-07-27T14:36:38.676Z,67.90
2022-07-27T14:39:11.087Z,67.60
2022-07-27T14:41:44.534Z,68.00
2022-07-27T14:44:18.734Z,68.60
2022-07-27T14:46:51.181Z,67.40
2022-07-27T14:49:25.531Z,66.70
2022-07-27T14:51:58.539Z,67.00
2022-07-27T14:54:33.606Z,66.30
2022-07-27T14:57:12.200Z,66.30
2022-07-27T14:59:45.755Z,63.60
2022-07-27T15:02:17.992Z,65.20
2022-07-27T15:04:50.211Z,64.20
2022-07-27T15:07:22.545Z,64.60
2022-07-27T15:09:55.072Z,64.10
2022-07-27T15:12:27.483Z,63.60
2022-07-27T15:14:59.599Z,63.00
2022-07-27T15:17:31.802Z,64.00
2022-07-27T15:20:10.402Z,63.20
2022-07-27T15:22:42.873Z,63.30
2022-07-27T15:25:15.058Z,62.90
2022-07-27T15:27:47.778Z,64.70
2022-07-27T15:30:19.947Z,62.20
2022-07-27T15:32:52.442Z,63.20
2022-07-27T15:35:24.640Z,62.90
2022-07-27T15:37:56.885Z,63.60
2022-07-27T15:40:38.159Z,64.20
2022-07-27T15:43:15.922Z,64.70
2022-07-27T15:45:50.763Z,63.50
2022-07-27T15:48:23.469Z,65.30
2022-07-27T15:50:58.775Z,63.70
2022-07-27T15:53:32.275Z,65.90
2022-07-27T15:56:04.523Z,64.60
2022-07-27T15:58:36.643Z,64.40
2022-07-27T16:01:12.056Z,63.00
2022-07-27T16:03:44.886Z,63.90
2022-07-27T16:06:21.823Z,64.90
2022-07-27T16:08:53.884Z,64.30
2022-07-27T16:11:26.540Z,65.30
2022-07-27T16:13:58.620Z,65.20
2022-07-27T16:16:31.967Z,65.30
2022-07-27T16:19:12.278Z,63.70
2022-07-27T16:21:54.955Z,63.50
2022-07-27T16:24:28.410Z,64.10
2022-07-27T16:27:01.542Z,64.60
2022-07-27T16:29:43.742Z,64.00
2022-07-27T16:32:16.028Z,63.10
2022-07-27T16:34:48.233Z,64.60
2022-07-27T16:37:20.712Z,64.50
2022-07-27T16:39:52.917Z,64.00
2022-07-27T16:42:25.171Z,63.50
2022-07-27T16:44:57.251Z,65.00
2022-07-27T16:47:29.329Z,65.80
2022-07-27T16:50:01.563Z,66.00
2022-07-27T16:52:35.195Z,67.00
2022-07-27T16:55:07.632Z,65.70
2022-07-27T16:57:40.314Z,66.40
2022-07-27T17:00:13.097Z,66.80
2022-07-27T17:02:45.885Z,65.30
2022-07-27T17:05:18.237Z,66.30
2022-07-27T17:07:52.373Z,66.60
2022-07-27T17:10:27.105Z,66.80
2022-07-27T17:13:00.163Z,66.20
2022-07-27T17:15:33.587Z,66.30
2022-07-27T17:18:07.889Z,66.70
2022-07-27T17:20:41.444Z,67.30
2022-07-27T17:23:13.848Z,67.00
2022-07-27T17:25:48.072Z,67.10
2022-07-27T17:28:21.237Z,67.30
2022-07-27T17:30:55.803Z,67.70
2022-07-27T17:33:28.065Z,67.10
2022-07-27T17:36:00.483Z,67.50
2022-07-27T17:38:32.798Z,67.40
2022-07-27T17:41:08.286Z,67.90
2022-07-27T17:43:40.921Z,67.90
2022-07-27T17:46:13.396Z,67.50
2022-07-27T17:48:45.595Z,68.10
2022-07-27T17:51:17.855Z,68.10
2022-07-27T17:53:51.124Z,68.60
2022-07-27T17:56:23.566Z,69.10
2022-07-27T17:59:04.924Z,68.70
2022-07-27T18:01:49.190Z,68.60
2022-07-27T18:04:21.377Z,68.50
2022-07-27T18:06:54.339Z,69.50
2022-07-27T18:09:26.780Z,69.20
2022-07-27T18:11:59.192Z,70.40
2022-07-27T18:14:31.895Z,69.20
2022-07-27T18:17:06.165Z,70.30
2022-07-27T18:20:35.003Z,70.40
2022-07-27T18:23:09.361Z,70.10
2022-07-27T18:25:41.924Z,70.80
2022-07-27T18:28:16.396Z,71.50
2022-07-27T18:30:52.071Z,71.40
2022-07-27T18:33:26.265Z,71.70
2022-07-27T18:36:09.107Z,71.40
2022-07-27T18:38:45.076Z,71.30
2022-07-27T18:41:19.069Z,71.60
2022-07-27T18:43:51.637Z,72.10
2022-07-27T18:46:24.409Z,72.70
2022-07-27T18:48:56.935Z,72.80
2022-07-27T18:51:30.467Z,72.80
2022-07-27T18:54:03.902Z,72.30
2022-07-27T18:56:38.008Z,72.50
2022-07-27T18:59:11.399Z,72.20
2022-07-27T19:01:45.485Z,73.20
2022-07-27T19:04:17.681Z,72.40
2022-07-27T19:06:50.329Z,72.60
2022-07-27T19:09:23.803Z,73.10
2022-07-27T19:11:59.240Z,73.20
2022-07-27T19:14:32.056Z,72.60
2022-07-27T19:17:05.123Z,73.50
2022-07-27T19:19:37.426Z,72.80
2022-07-27T19:22:09.701Z,72.50
2022-07-27T19:24:42.243Z,73.50
2022-07-27T19:27:16.279Z,73.30
2022-07-27T19:29:48.486Z,72.70
2022-07-27T19:32:20.677Z,73.40
2022-07-27T19:34:53.566Z,73.30
2022-07-27T19:37:29.654Z,74.40
2022-07-27T19:40:20.180Z,73.40
2022-07-27T19:42:55.155Z,74.40
2022-07-27T19:45:27.315Z,73.80
2022-07-27T19:48:01.623Z,73.90
2022-07-27T19:50:36.291Z,74.20
2022-07-27T19:53:09.081Z,74.30
2022-07-27T19:55:43.922Z,74.40
2022-07-27T19:58:17.275Z,74.80
2022-07-27T20:00:52.775Z,75.10
2022-07-27T20:03:28.083Z,75.20
2022-07-27T20:06:02.299Z,75.20
2022-07-27T20:08:34.890Z,75.50
2022-07-27T20:11:07.357Z,75.30
2022-07-27T20:13:39.633Z,75.60
2022-07-27T20:16:12.843Z,76.30
2022-07-27T20:18:46.714Z,76.90
2022-07-27T20:21:26.410Z,76.50
2022-07-27T20:24:02.008Z,76.80
2022-07-27T20:26:35.176Z,77.30
2022-07-27T20:29:08.219Z,77.30
2022-07-27T20:31:42.050Z,77.30
2022-07-27T20:34:14.398Z,77.50
2022-07-27T20:36:46.761Z,78.00
2022-07-27T20:39:20.306Z,78.20
2022-07-27T20:41:54.149Z,78.30
2022-07-27T20:44:27.626Z,78.20
2022-07-27T20:47:06.546Z,78.00
2022-07-27T20:49:39.604Z,78.20
2022-07-27T20:52:11.703Z,78.80
2022-07-27T20:54:43.864Z,78.60
2022-07-27T20:57:16.190Z,78.80
2022-07-27T20:59:48.415Z,78.90
2022-07-27T21:02:20.546Z,79.00
2022-07-27T21:04:54.865Z,79.50
2022-07-27T21:07:28.125Z,79.50
2022-07-27T21:10:00.576Z,80.80
2022-07-27T21:12:33.756Z,79.70
2022-07-27T21:15:09.917Z,80.00
2022-07-27T21:17:45.866Z,80.30
2022-07-27T21:20:18.035Z,80.50
2022-07-27T21:23:10.121Z,80.50
2022-07-27T21:26:02.092Z,80.40
2022-07-27T21:28:35.696Z,80.10
2022-07-27T21:31:08.243Z,80.90
2022-07-27T21:33:40.486Z,80.80
2022-07-27T21:36:12.749Z,80.50
2022-07-27T21:38:44.721Z,81.60
2022-07-27T21:41:19.843Z,81.00
2022-07-27T21:43:52.236Z,81.30
2022-07-27T21:46:24.898Z,81.60
2022-07-27T21:48:57.159Z,81.30
2022-07-27T21:51:29.472Z,81.60
2022-07-27T21:54:01.785Z,81.50
2022-07-27T21:56:41.082Z,81.90
2022-07-27T21:59:18.931Z,82.10
2022-07-27T22:01:51.044Z,82.10
2022-07-27T22:04:23.299Z,82.40
2022-07-27T22:06:55.395Z,82.00
2022-07-27T22:09:28.649Z,82.70
2022-07-27T22:12:01.079Z,82.40
2022-07-27T22:14:33.137Z,82.70
2022-07-27T22:17:05.277Z,82.50
2022-07-27T22:19:37.322Z,82.40
2022-07-27T22:22:09.426Z,82.50
2022-07-27T22:25:01.540Z,82.90
2022-07-27T22:27:34.226Z,82.90
2022-07-27T22:30:07.403Z,83.20
2022-07-27T22:32:40.120Z,82.70
2022-07-27T22:35:12.240Z,82.70
2022-07-27T22:37:44.488Z,82.90
2022-07-27T22:40:16.588Z,82.90
2022-07-27T22:43:13.613Z,83.90
2022-07-27T22:45:46.415Z,82.80
2022-07-27T22:48:18.875Z,83.70
2022-07-27T22:50:51.054Z,83.20
2022-07-27T22:53:23.172Z,83.50
2022-07-27T22:55:56.329Z,84.50
2022-07-27T22:58:28.445Z,85.00
2022-07-27T23:01:00.504Z,84.30
2022-07-27T23:03:33.940Z,84.60
2022-07-27T23:06:06.308Z,87.00
2022-07-27T23:08:38.433Z,86.40
2022-07-27T23:11:15.844Z,86.70
2022-07-27T23:13:48.276Z,87.00
2022-07-27T23:16:20.371Z,86.40
2022-07-27T23:18:52.485Z,86.50
2022-07-27T23:21:25.524Z,86.80
2022-07-27T23:23:57.493Z,87.20
2022-07-27T23:26:31.023Z,87.00
2022-07-27T23:29:03.840Z,87.50
2022-07-27T23:31:36.139Z,87.30
2022-07-27T23:34:08.298Z,89.50
2022-07-27T23:36:43.713Z,89.50
2022-07-27T23:39:16.615Z,88.90
2022-07-27T23:41:50.129Z,88.70
2022-07-27T23:44:22.605Z,88.30
2022-07-27T23:46:54.768Z,89.40
2022-07-27T23:49:26.918Z,88.80
2022-07-27T23:51:59.495Z,88.90
2022-07-27T23:54:33.257Z,89.00
2022-07-27T23:57:08.322Z,88.80
2022-07-27T23:59:40.446Z,88.60
